sensor_id;sensor_type;location;lat;lon;timestamp;pressure;altitude;pressure_sealevel;temperature;humidity
55660;BME280;41534;53.550;9.964;2024-02-26T00:00:49;100096.19;;;22.80;41.71
55660;BME280;41534;53.550;9.964;2024-02-26T00:03:49;100093.06;;;22.77;41.57
55660;BME280;41534;53.550;9.964;2024-02-26T00:06:50;100097.09;;;22.74;41.60
55660;BME280;41534;53.550;9.964;2024-02-26T00:09:50;100102.56;;;22.74;41.83
55660;BME280;41534;53.550;9.964;2024-02-26T00:12:50;100102.16;;;22.71;41.70
55660;BME280;41534;53.550;9.964;2024-02-26T00:15:50;100101.75;;;22.67;41.87
55660;BME280;41534;53.550;9.964;2024-02-26T00:18:51;100095.91;;;22.64;41.80
55660;BME280;41534;53.550;9.964;2024-02-26T00:21:51;100102.66;;;22.61;41.65
55660;BME280;41534;53.550;9.964;2024-02-26T00:24:51;100102.28;;;22.58;41.80
55660;BME280;41534;53.550;9.964;2024-02-26T00:27:52;100098.31;;;22.53;41.66
55660;BME280;41534;53.550;9.964;2024-02-26T00:30:52;100094.38;;;22.49;41.76
55660;BME280;41534;53.550;9.964;2024-02-26T00:33:52;100091.03;;;22.47;41.75
55660;BME280;41534;53.550;9.964;2024-02-26T00:36:52;100100.72;;;22.43;41.87
55660;BME280;41534;53.550;9.964;2024-02-26T00:39:53;100094.88;;;22.40;41.92
55660;BME280;41534;53.550;9.964;2024-02-26T00:42:53;100096.13;;;22.37;41.87
55660;BME280;41534;53.550;9.964;2024-02-26T00:45:53;100089.47;;;22.33;41.66
55660;BME280;41534;53.550;9.964;2024-02-26T00:48:53;100094.31;;;22.31;41.88
55660;BME280;41534;53.550;9.964;2024-02-26T00:51:54;100093.09;;;22.27;41.75
55660;BME280;41534;53.550;9.964;2024-02-26T00:54:54;100096.25;;;22.24;41.84
55660;BME280;41534;53.550;9.964;2024-02-26T00:57:54;100099.41;;;22.21;41.93
55660;BME280;41534;53.550;9.964;2024-02-26T01:00:55;100097.97;;;22.18;41.92
55660;BME280;41534;53.550;9.964;2024-02-26T01:03:55;100099.25;;;22.16;41.95
55660;BME280;41534;53.550;9.964;2024-02-26T01:06:55;100101.38;;;22.14;41.96
55660;BME280;41534;53.550;9.964;2024-02-26T01:09:55;100094.47;;;22.11;41.89
55660;BME280;41534;53.550;9.964;2024-02-26T01:12:56;100094.91;;;22.08;41.92
55660;BME280;41534;53.550;9.964;2024-02-26T01:15:56;100098.91;;;22.06;42.07
55660;BME280;41534;53.550;9.964;2024-02-26T01:18:56;100098.25;;;22.04;42.18
55660;BME280;41534;53.550;9.964;2024-02-26T01:21:56;100107.72;;;22.01;41.95
55660;BME280;41534;53.550;9.964;2024-02-26T01:24:57;100107.94;;;22.00;42.27
55660;BME280;41534;53.550;9.964;2024-02-26T01:27:57;100113.00;;;21.96;42.22
55660;BME280;41534;53.550;9.964;2024-02-26T01:30:57;100113.22;;;21.94;42.33
55660;BME280;41534;53.550;9.964;2024-02-26T01:33:57;100102.75;;;21.91;42.35
55660;BME280;41534;53.550;9.964;2024-02-26T01:36:58;100108.44;;;21.90;42.28
55660;BME280;41534;53.550;9.964;2024-02-26T01:39:58;100107.81;;;21.88;42.16
55660;BME280;41534;53.550;9.964;2024-02-26T01:42:59;100103.59;;;21.85;42.26
55660;BME280;41534;53.550;9.964;2024-02-26T01:46:00;100105.72;;;21.83;42.29
55660;BME280;41534;53.550;9.964;2024-02-26T01:49:02;100107.00;;;21.81;42.31
55660;BME280;41534;53.550;9.964;2024-02-26T01:52:03;100115.41;;;21.79;42.37
55660;BME280;41534;53.550;9.964;2024-02-26T01:55:04;100108.50;;;21.77;42.38
55660;BME280;41534;53.550;9.964;2024-02-26T01:58:05;100112.28;;;21.76;42.32
55660;BME280;41534;53.550;9.964;2024-02-26T02:01:05;100108.09;;;21.73;42.40
55660;BME280;41534;53.550;9.964;2024-02-26T02:04:05;100111.28;;;21.70;42.37
55660;BME280;41534;53.550;9.964;2024-02-26T02:07:06;100112.50;;;21.67;42.31
55660;BME280;41534;53.550;9.964;2024-02-26T02:10:07;100111.06;;;21.65;42.22
55660;BME280;41534;53.550;9.964;2024-02-26T02:13:07;100113.16;;;21.63;42.27
55660;BME280;41534;53.550;9.964;2024-02-26T02:16:08;100112.78;;;21.59;42.33
55660;BME280;41534;53.550;9.964;2024-02-26T02:19:08;100106.72;;;21.57;42.16
55660;BME280;41534;53.550;9.964;2024-02-26T02:22:08;100100.84;;;21.54;42.06
55660;BME280;41534;53.550;9.964;2024-02-26T02:25:09;100111.13;;;21.52;42.34
55660;BME280;41534;53.550;9.964;2024-02-26T02:28:09;100113.22;;;21.50;42.39
55660;BME280;41534;53.550;9.964;2024-02-26T02:31:10;100116.38;;;21.47;42.14
55660;BME280;41534;53.550;9.964;2024-02-26T02:34:10;100114.09;;;21.44;42.31
55660;BME280;41534;53.550;9.964;2024-02-26T02:37:11;100112.66;;;21.41;42.00
55660;BME280;41534;53.550;9.964;2024-02-26T02:40:11;100114.75;;;21.39;42.15
55660;BME280;41534;53.550;9.964;2024-02-26T02:43:11;100113.31;;;21.36;41.96
55660;BME280;41534;53.550;9.964;2024-02-26T02:46:12;100115.38;;;21.34;41.99
55660;BME280;41534;53.550;9.964;2024-02-26T02:49:12;100124.00;;;21.31;42.24
55660;BME280;41534;53.550;9.964;2024-02-26T02:52:12;100126.09;;;21.29;42.08
55660;BME280;41534;53.550;9.964;2024-02-26T02:55:12;100131.16;;;21.26;42.16
55660;BME280;41534;53.550;9.964;2024-02-26T02:58:13;100134.91;;;21.25;41.91
55660;BME280;41534;53.550;9.964;2024-02-26T03:01:13;100127.97;;;21.22;42.21
55660;BME280;41534;53.550;9.964;2024-02-26T03:04:13;100127.38;;;21.20;42.14
55660;BME280;41534;53.550;9.964;2024-02-26T03:07:14;100131.34;;;21.18;42.06
55660;BME280;41534;53.550;9.964;2024-02-26T03:10:14;100129.88;;;21.15;42.08
55660;BME280;41534;53.550;9.964;2024-02-26T03:13:14;100131.97;;;21.13;42.00
55660;BME280;41534;53.550;9.964;2024-02-26T03:16:17;100138.69;;;21.11;42.09
55660;BME280;41534;53.550;9.964;2024-02-26T03:19:17;100135.13;;;21.10;42.11
55660;BME280;41534;53.550;9.964;2024-02-26T03:22:17;100135.56;;;21.07;42.22
55660;BME280;41534;53.550;9.964;2024-02-26T03:25:17;100133.88;;;21.06;42.10
55660;BME280;41534;53.550;9.964;2024-02-26T03:28:18;100141.44;;;21.04;42.14
55660;BME280;41534;53.550;9.964;2024-02-26T03:31:18;100136.59;;;20.99;40.85
55660;BME280;41534;53.550;9.964;2024-02-26T03:34:18;100137.69;;;20.92;40.46
55660;BME280;41534;53.550;9.964;2024-02-26T03:37:25;100134.75;;;20.87;39.98
55660;BME280;41534;53.550;9.964;2024-02-26T03:40:25;100139.16;;;20.81;39.97
55660;BME280;41534;53.550;9.964;2024-02-26T03:43:25;100141.47;;;20.77;39.94
55660;BME280;41534;53.550;9.964;2024-02-26T03:46:26;100148.38;;;20.73;39.91
55660;BME280;41534;53.550;9.964;2024-02-26T03:49:26;100154.25;;;20.70;39.78
55660;BME280;41534;53.550;9.964;2024-02-26T03:52:26;100160.34;;;20.66;39.62
55660;BME280;41534;53.550;9.964;2024-02-26T03:55:26;100167.22;;;20.62;39.40
55660;BME280;41534;53.550;9.964;2024-02-26T03:58:27;100161.38;;;20.58;39.40
55660;BME280;41534;53.550;9.964;2024-02-26T04:01:27;100178.97;;;20.56;39.32
55660;BME280;41534;53.550;9.964;2024-02-26T04:04:27;100184.81;;;20.53;39.26
55660;BME280;41534;53.550;9.964;2024-02-26T04:07:27;100185.25;;;20.50;39.22
55660;BME280;41534;53.550;9.964;2024-02-26T04:10:28;100182.09;;;20.46;39.16
55660;BME280;41534;53.550;9.964;2024-02-26T04:13:28;100189.63;;;20.44;39.07
55660;BME280;41534;53.550;9.964;2024-02-26T04:16:28;100188.16;;;20.41;39.05
55660;BME280;41534;53.550;9.964;2024-02-26T04:19:28;100187.69;;;20.38;39.10
55660;BME280;41534;53.550;9.964;2024-02-26T04:22:29;100210.53;;;20.37;38.87
55660;BME280;41534;53.550;9.964;2024-02-26T04:25:29;100207.38;;;20.33;38.98
55660;BME280;41534;53.550;9.964;2024-02-26T04:28:29;100216.81;;;20.31;38.83
55660;BME280;41534;53.550;9.964;2024-02-26T04:31:30;100221.59;;;20.29;38.95
55660;BME280;41534;53.550;9.964;2024-02-26T04:34:30;100220.31;;;20.25;38.76
55660;BME280;41534;53.550;9.964;2024-02-26T04:37:30;100223.03;;;20.25;38.81
55660;BME280;41534;53.550;9.964;2024-02-26T04:40:30;100236.00;;;20.23;38.78
55660;BME280;41534;53.550;9.964;2024-02-26T04:43:31;100232.03;;;20.18;38.62
55660;BME280;41534;53.550;9.964;2024-02-26T04:46:31;100236.84;;;20.16;38.72
55660;BME280;41534;53.550;9.964;2024-02-26T04:49:31;100243.34;;;20.15;38.58
55660;BME280;41534;53.550;9.964;2024-02-26T04:52:31;100249.16;;;20.12;38.58
55660;BME280;41534;53.550;9.964;2024-02-26T04:55:32;100246.84;;;20.09;38.58
55660;BME280;41534;53.550;9.964;2024-02-26T04:58:32;100247.88;;;20.08;38.63
55660;BME280;41534;53.550;9.964;2024-02-26T05:01:32;100258.34;;;20.05;38.63
55660;BME280;41534;53.550;9.964;2024-02-26T05:04:33;100253.13;;;20.03;38.62
55660;BME280;41534;53.550;9.964;2024-02-26T05:07:33;100257.06;;;20.01;38.59
55660;BME280;41534;53.550;9.964;2024-02-26T05:10:33;100248.28;;;19.99;38.28
55660;BME280;41534;53.550;9.964;2024-02-26T05:13:34;100262.09;;;19.97;38.40
55660;BME280;41534;53.550;9.964;2024-02-26T05:16:34;100261.44;;;19.95;38.52
55660;BME280;41534;53.550;9.964;2024-02-26T05:19:34;100261.63;;;19.94;38.45
55660;BME280;41534;53.550;9.964;2024-02-26T05:22:34;100262.88;;;19.91;38.29
55660;BME280;41534;53.550;9.964;2024-02-26T05:25:35;100271.25;;;19.90;38.44
55660;BME280;41534;53.550;9.964;2024-02-26T05:28:35;100262.44;;;19.87;38.31
55660;BME280;41534;53.550;9.964;2024-02-26T05:31:35;100267.25;;;19.85;38.39
55660;BME280;41534;53.550;9.964;2024-02-26T05:34:36;100265.78;;;19.83;38.43
55660;BME280;41534;53.550;9.964;2024-02-26T05:37:36;100277.69;;;19.82;38.42
55660;BME280;41534;53.550;9.964;2024-02-26T05:40:36;100277.06;;;19.80;38.35
55660;BME280;41534;53.550;9.964;2024-02-26T05:43:36;100295.44;;;19.78;38.38
55660;BME280;41534;53.550;9.964;2024-02-26T05:46:37;100287.47;;;19.76;38.29
55660;BME280;41534;53.550;9.964;2024-02-26T05:49:37;100295.84;;;19.75;38.34
55660;BME280;41534;53.550;9.964;2024-02-26T05:52:37;100290.81;;;19.72;38.15
55660;BME280;41534;53.550;9.964;2024-02-26T05:55:38;100294.56;;;19.71;38.50
55660;BME280;41534;53.550;9.964;2024-02-26T05:58:38;100295.81;;;19.68;38.03
55660;BME280;41534;53.550;9.964;2024-02-26T06:01:38;100297.91;;;19.66;38.10
55660;BME280;41534;53.550;9.964;2024-02-26T06:04:38;100307.28;;;19.64;38.10
55660;BME280;41534;53.550;9.964;2024-02-26T06:07:39;100308.50;;;19.61;38.05
55660;BME280;41534;53.550;9.964;2024-02-26T06:10:39;100311.44;;;19.60;38.07
55660;BME280;41534;53.550;9.964;2024-02-26T06:13:39;100323.34;;;19.58;38.10
55660;BME280;41534;53.550;9.964;2024-02-26T06:16:40;100319.13;;;19.56;38.04
55660;BME280;41534;53.550;9.964;2024-02-26T06:19:40;100324.78;;;19.54;38.10
55660;BME280;41534;53.550;9.964;2024-02-26T06:22:40;100331.22;;;19.53;38.15
55660;BME280;41534;53.550;9.964;2024-02-26T06:25:41;100330.59;;;19.51;38.13
55660;BME280;41534;53.550;9.964;2024-02-26T06:28:41;100333.50;;;19.50;38.17
55660;BME280;41534;53.550;9.964;2024-02-26T06:31:41;100328.25;;;19.48;37.99
55660;BME280;41534;53.550;9.964;2024-02-26T06:34:43;100330.34;;;19.46;38.44
55660;BME280;41534;53.550;9.964;2024-02-26T06:37:44;100327.81;;;19.45;37.97
55660;BME280;41534;53.550;9.964;2024-02-26T06:40:46;100333.44;;;19.43;37.94
55660;BME280;41534;53.550;9.964;2024-02-26T06:43:46;100343.66;;;19.41;37.92
55660;BME280;41534;53.550;9.964;2024-02-26T06:46:46;100345.75;;;19.39;37.90
55660;BME280;41534;53.550;9.964;2024-02-26T06:49:46;100344.06;;;19.38;38.00
55660;BME280;41534;53.550;9.964;2024-02-26T06:52:47;100344.25;;;19.37;37.96
55660;BME280;41534;53.550;9.964;2024-02-26T06:55:47;100350.72;;;19.36;38.15
55660;BME280;41534;53.550;9.964;2024-02-26T06:58:47;100352.81;;;19.34;38.23
55660;BME280;41534;53.550;9.964;2024-02-26T07:01:47;100355.72;;;19.32;37.89
55660;BME280;41534;53.550;9.964;2024-02-26T07:04:48;100352.38;;;19.30;37.76
55660;BME280;41534;53.550;9.964;2024-02-26T07:07:48;100361.56;;;19.29;38.02
55660;BME280;41534;53.550;9.964;2024-02-26T07:10:48;100363.63;;;19.27;37.99
55660;BME280;41534;53.550;9.964;2024-02-26T07:13:48;100361.06;;;19.25;37.90
55660;BME280;41534;53.550;9.964;2024-02-26T07:16:49;100364.00;;;19.24;37.80
55660;BME280;41534;53.550;9.964;2024-02-26T07:19:49;100366.06;;;19.22;37.84
55660;BME280;41534;53.550;9.964;2024-02-26T07:22:49;100375.25;;;19.21;38.08
55660;BME280;41534;53.550;9.964;2024-02-26T07:25:50;100371.91;;;19.19;37.85
55660;BME280;41534;53.550;9.964;2024-02-26T07:28:50;100377.31;;;19.19;37.93
55660;BME280;41534;53.550;9.964;2024-02-26T07:31:50;100377.53;;;19.17;37.88
55660;BME280;41534;53.550;9.964;2024-02-26T07:34:51;100380.44;;;19.16;37.80
55660;BME280;41534;53.550;9.964;2024-02-26T07:37:51;100386.91;;;19.15;37.73
55660;BME280;41534;53.550;9.964;2024-02-26T07:40:51;100386.25;;;19.13;37.78
55660;BME280;41534;53.550;9.964;2024-02-26T07:43:51;100397.13;;;19.13;38.31
55660;BME280;41534;53.550;9.964;2024-02-26T07:46:52;100400.03;;;19.11;37.67
55660;BME280;41534;53.550;9.964;2024-02-26T07:49:52;100406.31;;;19.12;37.96
55660;BME280;41534;53.550;9.964;2024-02-26T07:52:52;100406.66;;;19.09;37.81
55660;BME280;41534;53.550;9.964;2024-02-26T07:55:53;100413.97;;;19.08;37.73
55660;BME280;41534;53.550;9.964;2024-02-26T07:58:53;100417.72;;;19.07;37.66
55660;BME280;41534;53.550;9.964;2024-02-26T08:01:53;100421.47;;;19.06;37.83
55660;BME280;41534;53.550;9.964;2024-02-26T08:04:53;100419.81;;;19.05;37.92
55660;BME280;41534;53.550;9.964;2024-02-26T08:07:54;100426.06;;;19.06;37.91
55660;BME280;41534;53.550;9.964;2024-02-26T08:10:54;100429.81;;;19.05;37.93
55660;BME280;41534;53.550;9.964;2024-02-26T08:13:54;100425.63;;;19.02;38.00
55660;BME280;41534;53.550;9.964;2024-02-26T08:16:54;100425.81;;;19.01;37.91
55660;BME280;41534;53.550;9.964;2024-02-26T08:19:55;100433.97;;;19.01;37.88
55660;BME280;41534;53.550;9.964;2024-02-26T08:22:56;100435.00;;;19.00;37.86
55660;BME280;41534;53.550;9.964;2024-02-26T08:25:56;100436.03;;;18.98;37.81
55660;BME280;41534;53.550;9.964;2024-02-26T08:28:56;100437.28;;;18.96;37.94
55660;BME280;41534;53.550;9.964;2024-02-26T08:31:56;100442.69;;;18.96;37.75
55660;BME280;41534;53.550;9.964;2024-02-26T08:34:57;100446.44;;;18.95;38.07
55660;BME280;41534;53.550;9.964;2024-02-26T08:37:57;100451.03;;;18.94;37.92
55660;BME280;41534;53.550;9.964;2024-02-26T08:40:57;100442.25;;;18.92;37.90
55660;BME280;41534;53.550;9.964;2024-02-26T08:43:57;100446.84;;;18.92;37.98
55660;BME280;41534;53.550;9.964;2024-02-26T08:46:58;100453.25;;;18.91;37.87
55660;BME280;41534;53.550;9.964;2024-02-26T08:49:58;100450.56;;;18.91;38.20
55660;BME280;41534;53.550;9.964;2024-02-26T08:52:58;100448.88;;;18.90;38.09
55660;BME280;41534;53.550;9.964;2024-02-26T08:55:58;100458.06;;;18.89;38.37
55660;BME280;41534;53.550;9.964;2024-02-26T08:58:59;100458.06;;;18.89;37.88
55660;BME280;41534;53.550;9.964;2024-02-26T09:01:59;100466.38;;;18.87;38.05
55660;BME280;41534;53.550;9.964;2024-02-26T09:04:59;100466.38;;;18.87;37.97
55660;BME280;41534;53.550;9.964;2024-02-26T09:07:59;100466.38;;;18.87;37.97
55660;BME280;41534;53.550;9.964;2024-02-26T09:11:00;100470.34;;;18.85;37.94
55660;BME280;41534;53.550;9.964;2024-02-26T09:14:00;100469.50;;;18.84;38.00
55660;BME280;41534;53.550;9.964;2024-02-26T09:17:00;100479.31;;;18.85;37.96
55660;BME280;41534;53.550;9.964;2024-02-26T09:20:02;100479.50;;;18.84;38.11
55660;BME280;41534;53.550;9.964;2024-02-26T09:23:02;100486.81;;;18.83;38.36
55660;BME280;41534;53.550;9.964;2024-02-26T09:26:05;100492.25;;;18.83;38.04
55660;BME280;41534;53.550;9.964;2024-02-26T09:29:05;100492.25;;;18.83;38.11
55660;BME280;41534;53.550;9.964;2024-02-26T09:32:06;100484.94;;;18.84;38.19
55660;BME280;41534;53.550;9.964;2024-02-26T09:35:06;100485.19;;;18.89;38.71
55660;BME280;41534;53.550;9.964;2024-02-26T09:38:07;100492.41;;;18.96;38.58
55660;BME280;41534;53.550;9.964;2024-02-26T09:41:14;100497.72;;;19.05;38.79
55660;BME280;41534;53.550;9.964;2024-02-26T09:44:24;100495.09;;;19.11;38.74
55660;BME280;41534;53.550;9.964;2024-02-26T09:47:26;100493.47;;;19.17;38.81
55660;BME280;41534;53.550;9.964;2024-02-26T09:50:28;100502.72;;;19.22;38.58
55660;BME280;41534;53.550;9.964;2024-02-26T09:53:29;100494.69;;;19.29;38.69
55660;BME280;41534;53.550;9.964;2024-02-26T09:56:29;100493.69;;;19.37;38.82
55660;BME280;41534;53.550;9.964;2024-02-26T09:59:38;100500.13;;;19.50;39.33
55660;BME280;41534;53.550;9.964;2024-02-26T10:02:39;100512.84;;;19.65;39.91
55660;BME280;41534;53.550;9.964;2024-02-26T10:05:39;100509.66;;;19.82;40.07
55660;BME280;41534;53.550;9.964;2024-02-26T10:08:41;100518.38;;;19.99;40.16
55660;BME280;41534;53.550;9.964;2024-02-26T10:11:43;100516.41;;;20.14;40.17
55660;BME280;41534;53.550;9.964;2024-02-26T10:14:43;100506.44;;;20.28;40.38
55660;BME280;41534;53.550;9.964;2024-02-26T10:17:43;100515.75;;;20.40;40.02
55660;BME280;41534;53.550;9.964;2024-02-26T10:20:59;100521.53;;;20.52;40.02
55660;BME280;41534;53.550;9.964;2024-02-26T10:23:59;100519.25;;;20.62;40.23
55660;BME280;41534;53.550;9.964;2024-02-26T10:27:00;100521.44;;;20.73;40.26
55660;BME280;41534;53.550;9.964;2024-02-26T10:30:04;100521.72;;;20.85;40.29
55660;BME280;41534;53.550;9.964;2024-02-26T10:33:07;100525.50;;;20.97;40.30
55660;BME280;41534;53.550;9.964;2024-02-26T10:36:07;100527.66;;;21.08;40.22
55660;BME280;41534;53.550;9.964;2024-02-26T10:39:08;100530.19;;;21.17;40.52
55660;BME280;41534;53.550;9.964;2024-02-26T10:42:12;100532.78;;;21.25;40.35
55660;BME280;41534;53.550;9.964;2024-02-26T10:45:12;100538.88;;;21.33;40.41
55660;BME280;41534;53.550;9.964;2024-02-26T10:48:14;100528.44;;;21.44;40.49
55660;BME280;41534;53.550;9.964;2024-02-26T10:51:14;100529.13;;;21.52;40.56
55660;BME280;41534;53.550;9.964;2024-02-26T10:54:16;100531.41;;;21.62;40.78
55660;BME280;41534;53.550;9.964;2024-02-26T10:57:17;100532.91;;;21.71;40.74
55660;BME280;41534;53.550;9.964;2024-02-26T11:00:18;100535.44;;;21.79;40.53
55660;BME280;41534;53.550;9.964;2024-02-26T11:03:19;100547.00;;;21.88;40.49
55660;BME280;41534;53.550;9.964;2024-02-26T11:06:21;100541.31;;;21.96;40.45
55660;BME280;41534;53.550;9.964;2024-02-26T11:09:22;100540.28;;;22.04;40.34
55660;BME280;41534;53.550;9.964;2024-02-26T11:12:24;100549.13;;;22.12;40.32
55660;BME280;41534;53.550;9.964;2024-02-26T11:15:25;100540.31;;;22.23;40.50
55660;BME280;41534;53.550;9.964;2024-02-26T11:18:27;100534.63;;;22.32;40.51
55660;BME280;41534;53.550;9.964;2024-02-26T11:21:27;100545.34;;;22.40;40.64
55660;BME280;41534;53.550;9.964;2024-02-26T11:24:28;100544.28;;;22.47;40.54
55660;BME280;41534;53.550;9.964;2024-02-26T11:27:38;100543.41;;;22.53;40.85
55660;BME280;41534;53.550;9.964;2024-02-26T11:30:44;100549.09;;;22.59;40.51
55660;BME280;41534;53.550;9.964;2024-02-26T11:33:47;100545.94;;;22.62;40.54
55660;BME280;41534;53.550;9.964;2024-02-26T11:36:47;100543.00;;;22.63;40.64
55660;BME280;41534;53.550;9.964;2024-02-26T11:39:48;100553.09;;;22.63;40.33
55660;BME280;41534;53.550;9.964;2024-02-26T11:42:48;100555.19;;;22.61;40.52
55660;BME280;41534;53.550;9.964;2024-02-26T11:45:49;100559.19;;;22.58;40.47
55660;BME280;41534;53.550;9.964;2024-02-26T11:48:49;100553.28;;;22.54;40.67
55660;BME280;41534;53.550;9.964;2024-02-26T11:51:54;100563.81;;;22.51;40.50
55660;BME280;41534;53.550;9.964;2024-02-26T11:54:57;100562.34;;;22.48;40.59
55660;BME280;41534;53.550;9.964;2024-02-26T11:57:58;100558.16;;;22.46;40.55
55660;BME280;41534;53.550;9.964;2024-02-26T12:00:58;100562.16;;;22.43;40.55
55660;BME280;41534;53.550;9.964;2024-02-26T12:03:58;100569.94;;;22.40;40.52
55660;BME280;41534;53.550;9.964;2024-02-26T12:07:03;100566.75;;;22.36;40.86
55660;BME280;41534;53.550;9.964;2024-02-26T12:10:22;100565.50;;;22.32;40.39
55660;BME280;41534;53.550;9.964;2024-02-26T12:13:29;100576.84;;;22.29;40.86
55660;BME280;41534;53.550;9.964;2024-02-26T12:16:38;100581.69;;;22.27;41.08
55660;BME280;41534;53.550;9.964;2024-02-26T12:19:38;100582.72;;;22.26;40.88
55660;BME280;41534;53.550;9.964;2024-02-26T12:22:39;100583.78;;;22.25;40.98
55660;BME280;41534;53.550;9.964;2024-02-26T12:25:40;100578.31;;;22.25;41.13
55660;BME280;41534;53.550;9.964;2024-02-26T12:28:41;100592.81;;;22.25;41.20
55660;BME280;41534;53.550;9.964;2024-02-26T12:31:41;100589.47;;;22.23;41.20
55660;BME280;41534;53.550;9.964;2024-02-26T12:34:42;100594.06;;;22.23;41.10
55660;BME280;41534;53.550;9.964;2024-02-26T12:37:46;100597.00;;;22.21;41.10
55660;BME280;41534;53.550;9.964;2024-02-26T12:40:46;100605.19;;;22.21;41.13
55660;BME280;41534;53.550;9.964;2024-02-26T12:43:47;100607.06;;;22.21;40.93
55660;BME280;41534;53.550;9.964;2024-02-26T12:46:47;100606.06;;;22.22;41.01
55660;BME280;41534;53.550;9.964;2024-02-26T12:49:48;100603.94;;;22.24;41.18
55660;BME280;41534;53.550;9.964;2024-02-26T12:52:49;100612.75;;;22.26;41.27
55660;BME280;41534;53.550;9.964;2024-02-26T12:55:51;100618.22;;;22.26;41.23
55660;BME280;41534;53.550;9.964;2024-02-26T12:58:51;100617.16;;;22.27;41.05
55660;BME280;41534;53.550;9.964;2024-02-26T13:01:52;100627.03;;;22.28;41.10
55660;BME280;41534;53.550;9.964;2024-02-26T13:04:54;100629.78;;;22.28;41.20
55660;BME280;41534;53.550;9.964;2024-02-26T13:07:55;100641.31;;;22.30;41.32
55660;BME280;41534;53.550;9.964;2024-02-26T13:10:55;100643.41;;;22.35;41.30
55660;BME280;41534;53.550;9.964;2024-02-26T13:13:55;100639.19;;;22.39;41.48
55660;BME280;41534;53.550;9.964;2024-02-26T13:16:56;100640.28;;;22.44;40.95
55660;BME280;41534;53.550;9.964;2024-02-26T13:19:57;100648.47;;;22.51;41.17
55660;BME280;41534;53.550;9.964;2024-02-26T13:23:04;100656.00;;;22.55;41.34
55660;BME280;41534;53.550;9.964;2024-02-26T13:26:05;100658.34;;;22.59;41.44
55660;BME280;41534;53.550;9.964;2024-02-26T13:29:05;100661.06;;;22.65;41.35
55660;BME280;41534;53.550;9.964;2024-02-26T13:32:06;100669.88;;;22.67;41.41
55660;BME280;41534;53.550;9.964;2024-02-26T13:35:11;100669.47;;;22.70;41.53
55660;BME280;41534;53.550;9.964;2024-02-26T13:38:12;100669.25;;;22.65;41.08
55660;BME280;41534;53.550;9.964;2024-02-26T13:41:12;100672.22;;;22.64;41.14
55660;BME280;41534;53.550;9.964;2024-02-26T13:44:12;100662.75;;;22.60;40.80
55660;BME280;41534;53.550;9.964;2024-02-26T13:47:13;100679.97;;;22.53;40.93
55660;BME280;41534;53.550;9.964;2024-02-26T13:50:13;100678.09;;;22.47;41.15
55660;BME280;41534;53.550;9.964;2024-02-26T13:53:13;100679.78;;;22.42;41.29
55660;BME280;41534;53.550;9.964;2024-02-26T13:56:15;100676.59;;;22.38;41.34
55660;BME280;41534;53.550;9.964;2024-02-26T13:59:15;100680.59;;;22.36;41.10
55660;BME280;41534;53.550;9.964;2024-02-26T14:02:15;100685.00;;;22.30;41.21
55660;BME280;41534;53.550;9.964;2024-02-26T14:05:16;100684.78;;;22.25;41.06
55660;BME280;41534;53.550;9.964;2024-02-26T14:08:16;100682.47;;;22.22;41.24
55660;BME280;41534;53.550;9.964;2024-02-26T14:11:16;100678.66;;;22.16;41.14
55660;BME280;41534;53.550;9.964;2024-02-26T14:14:16;100697.13;;;22.14;41.09
55660;BME280;41534;53.550;9.964;2024-02-26T14:17:17;100696.50;;;22.12;41.24
55660;BME280;41534;53.550;9.964;2024-02-26T14:20:17;100713.31;;;22.09;41.18
55660;BME280;41534;53.550;9.964;2024-02-26T14:23:17;100703.84;;;22.05;41.14
55660;BME280;41534;53.550;9.964;2024-02-26T14:26:18;100704.19;;;22.02;41.21
55660;BME280;41534;53.550;9.964;2024-02-26T14:29:18;100700.84;;;22.00;41.05
55660;BME280;41534;53.550;9.964;2024-02-26T14:32:18;100710.69;;;21.94;41.06
55660;BME280;41534;53.550;9.964;2024-02-26T14:35:18;100717.22;;;21.93;41.12
55660;BME280;41534;53.550;9.964;2024-02-26T14:38:19;100723.72;;;21.92;41.44
55660;BME280;41534;53.550;9.964;2024-02-26T14:41:19;100718.47;;;21.91;41.63
55660;BME280;41534;53.550;9.964;2024-02-26T14:44:19;100725.81;;;21.90;41.67
55660;BME280;41534;53.550;9.964;2024-02-26T14:47:24;100718.25;;;21.92;42.16
55660;BME280;41534;53.550;9.964;2024-02-26T14:54:13;100735.06;;;21.96;42.19
55660;BME280;41534;53.550;9.964;2024-02-26T14:57:14;100738.19;;;22.00;42.34
55660;BME280;41534;53.550;9.964;2024-02-26T15:00:14;100736.75;;;22.04;42.32
55660;BME280;41534;53.550;9.964;2024-02-26T15:03:15;100749.41;;;22.05;42.49
55660;BME280;41534;53.550;9.964;2024-02-26T15:06:15;100746.25;;;22.08;42.48
55660;BME280;41534;53.550;9.964;2024-02-26T15:09:15;100748.56;;;22.11;42.35
55660;BME280;41534;53.550;9.964;2024-02-26T15:12:16;100746.47;;;22.13;43.05
55660;BME280;41534;53.550;9.964;2024-02-26T15:15:16;100754.66;;;22.13;42.80
55660;BME280;41534;53.550;9.964;2024-02-26T15:18:16;100750.47;;;22.10;42.83
55660;BME280;41534;53.550;9.964;2024-02-26T15:21:17;100753.19;;;22.10;42.75
55660;BME280;41534;53.550;9.964;2024-02-26T15:24:17;100760.13;;;22.13;42.83
55660;BME280;41534;53.550;9.964;2024-02-26T15:27:17;100767.91;;;22.16;44.12
55660;BME280;41534;53.550;9.964;2024-02-26T15:30:18;100772.94;;;22.19;44.33
55660;BME280;41534;53.550;9.964;2024-02-26T15:33:18;100780.06;;;22.20;44.83
55660;BME280;41534;53.550;9.964;2024-02-26T15:36:18;100780.91;;;22.20;44.77
55660;BME280;41534;53.550;9.964;2024-02-26T15:39:18;100788.25;;;22.20;44.33
55660;BME280;41534;53.550;9.964;2024-02-26T15:42:19;100779.88;;;22.21;43.95
55660;BME280;41534;53.550;9.964;2024-02-26T15:45:19;100779.03;;;22.21;43.78
55660;BME280;41534;53.550;9.964;2024-02-26T15:48:19;100799.66;;;22.23;43.93